createdAt,value
2017-11-04T00:00:37.213Z,30.30
2017-11-04T00:03:04.795Z,31.60
2017-11-04T00:05:32.338Z,25.40
2017-11-04T00:07:59.896Z,27.40
2017-11-04T00:10:27.511Z,26.17
2017-11-04T00:12:55.052Z,39.42
2017-11-04T00:15:22.617Z,27.42
2017-11-04T00:17:50.144Z,31.15
2017-11-04T00:20:17.683Z,32.28
2017-11-04T00:22:45.260Z,27.33
2017-11-04T00:25:12.816Z,34.80
2017-11-04T00:27:40.395Z,29.05
2017-11-04T00:30:07.934Z,35.38
2017-11-04T00:32:35.493Z,24.05
2017-11-04T00:35:03.056Z,28.20
2017-11-04T00:37:30.588Z,37.10
2017-11-04T00:39:58.154Z,29.65
2017-11-04T00:42:26.466Z,30.60
2017-11-04T00:44:53.992Z,26.62
2017-11-04T00:47:22.331Z,27.95
2017-11-04T00:49:49.880Z,32.42
2017-11-04T00:52:17.441Z,39.45
2017-11-04T00:54:44.982Z,33.88
2017-11-04T00:57:12.534Z,33.47
2017-11-04T00:59:40.849Z,32.08
2017-11-04T01:02:08.382Z,51.83
2017-11-04T01:04:35.955Z,35.90
2017-11-04T01:07:03.504Z,27.27
2017-11-04T01:09:31.061Z,36.42
2017-11-04T01:11:59.362Z,38.80
2017-11-04T01:14:26.906Z,35.10
2017-11-04T01:16:54.476Z,34.75
2017-11-04T01:19:22.019Z,29.90
2017-11-04T01:21:50.341Z,47.83
2017-11-04T01:24:17.891Z,32.35
2017-11-04T01:26:45.436Z,32.85
2017-11-04T01:29:13.001Z,30.02
2017-11-04T01:31:40.549Z,34.53
2017-11-04T01:34:10.735Z,40.75
2017-11-04T01:36:38.279Z,33.35
2017-11-04T01:39:05.831Z,41.17
2017-11-04T01:41:33.400Z,24.98
2017-11-04T01:44:00.936Z,38.95
2017-11-04T01:46:28.513Z,42.72
2017-11-04T01:48:56.068Z,27.80
2017-11-04T01:51:23.624Z,36.72
2017-11-04T01:53:50.704Z,30.27
2017-11-04T01:56:18.251Z,35.40
2017-11-04T01:58:45.809Z,39.90
2017-11-04T02:01:13.417Z,26.02
2017-11-04T02:03:40.958Z,30.67
2017-11-04T02:06:08.515Z,33.42
2017-11-04T02:08:36.045Z,28.35
2017-11-04T02:11:03.622Z,25.90
2017-11-04T02:13:31.166Z,28.05
2017-11-04T02:15:58.702Z,36.38
2017-11-04T02:18:27.035Z,48.20
2017-11-04T02:20:54.582Z,31.85
2017-11-04T02:23:22.143Z,33.17
2017-11-04T02:25:49.669Z,33.75
2017-11-04T02:28:17.970Z,33.40
2017-11-04T02:30:45.536Z,37.90
2017-11-04T02:33:13.081Z,29.95
2017-11-04T02:35:41.427Z,33.83
2017-11-04T02:38:08.968Z,33.65
2017-11-04T02:40:36.508Z,36.30
2017-11-04T02:43:04.083Z,31.52
2017-11-04T02:45:31.614Z,40.90
2017-11-04T02:47:59.215Z,28.48
2017-11-04T02:50:26.746Z,42.50
2017-11-04T02:52:54.287Z,29.90
2017-11-04T02:55:22.605Z,33.55
2017-11-04T02:57:50.174Z,31.02
2017-11-04T03:00:17.725Z,37.33
2017-11-04T03:02:45.267Z,53.20
2017-11-04T03:05:12.796Z,37.08
2017-11-04T03:07:40.381Z,34.08
2017-11-04T03:10:08.692Z,37.40
2017-11-04T03:12:36.254Z,26.98
2017-11-04T03:15:03.782Z,36.20
2017-11-04T03:17:32.073Z,55.33
2017-11-04T03:19:59.621Z,32.47
2017-11-04T03:22:27.932Z,33.47
2017-11-04T03:24:55.491Z,31.27
2017-11-04T03:27:23.016Z,41.50
2017-11-04T03:29:51.309Z,40.35
2017-11-04T03:32:18.869Z,43.58
2017-11-04T03:34:46.437Z,40.05
2017-11-04T03:37:13.987Z,34.45
2017-11-04T03:39:42.301Z,35.95
2017-11-04T03:42:09.864Z,35.13
2017-11-04T03:44:37.755Z,30.65
2017-11-04T03:47:05.323Z,30.58
2017-11-04T03:49:32.865Z,45.25
2017-11-04T03:52:00.447Z,37.50
2017-11-04T03:54:27.996Z,26.73
2017-11-04T03:56:55.527Z,31.17
2017-11-04T03:59:23.081Z,28.33
2017-11-04T04:01:50.610Z,34.17
2017-11-04T04:04:18.943Z,40.15
2017-11-04T04:06:46.477Z,33.83
2017-11-04T04:09:14.000Z,27.95
2017-11-04T04:11:41.549Z,36.10
2017-11-04T04:14:09.082Z,43.05
2017-11-04T04:16:36.636Z,34.75
2017-11-04T04:19:04.180Z,34.92
2017-11-04T04:21:32.487Z,35.75
2017-11-04T04:24:00.033Z,37.80
2017-11-04T04:26:27.698Z,40.08
2017-11-04T04:28:55.267Z,51.20
2017-11-04T04:31:22.799Z,27.80
2017-11-04T04:33:51.101Z,35.88
2017-11-04T04:36:18.658Z,37.35
2017-11-04T04:38:46.189Z,39.03
2017-11-04T04:41:14.511Z,36.75
2017-11-04T04:43:42.056Z,26.37
2017-11-04T04:46:09.599Z,31.10
2017-11-04T04:48:37.925Z,33.67
2017-11-04T04:51:05.471Z,44.90
2017-11-04T04:53:33.038Z,38.13
2017-11-04T04:56:00.580Z,35.13
2017-11-04T04:58:28.127Z,32.88
2017-11-04T05:00:56.456Z,39.30
2017-11-04T05:03:24.004Z,35.13
2017-11-04T05:05:51.562Z,38.50
2017-11-04T05:08:19.107Z,43.35
2017-11-04T05:10:46.647Z,36.35
2017-11-04T05:13:14.971Z,41.20
2017-11-04T05:15:42.512Z,31.10
2017-11-04T05:18:10.086Z,35.35
2017-11-04T05:20:37.614Z,53.97
2017-11-04T05:23:05.906Z,41.72
2017-11-04T05:25:34.216Z,44.88
2017-11-04T05:28:01.758Z,34.33
2017-11-04T05:30:29.318Z,35.08
2017-11-04T05:32:56.859Z,31.50
2017-11-04T05:35:25.149Z,37.95
2017-11-04T05:37:53.471Z,38.28
2017-11-04T05:40:21.027Z,38.45
2017-11-04T05:42:48.595Z,49.70
2017-11-04T05:45:16.164Z,33.80
2017-11-04T05:47:43.708Z,42.22
2017-11-04T05:50:11.275Z,36.85
2017-11-04T05:52:38.804Z,36.80
2017-11-04T05:55:06.355Z,37.88
2017-11-04T05:57:34.649Z,58.85
2017-11-04T06:00:02.182Z,39.17
2017-11-04T06:02:30.521Z,47.13
2017-11-04T06:04:58.047Z,31.42
2017-11-04T06:07:25.628Z,45.83
2017-11-04T06:09:53.161Z,39.55
2017-11-04T06:12:21.459Z,44.33
2017-11-04T06:14:49.007Z,37.58
2017-11-04T06:17:17.320Z,42.97
2017-11-04T06:19:44.882Z,35.80
2017-11-04T06:22:12.410Z,35.72
2017-11-04T06:24:39.937Z,39.13
2017-11-04T06:27:07.508Z,40.33
2017-11-04T06:29:35.814Z,42.78
2017-11-04T06:32:03.393Z,51.30
2017-11-04T06:34:32.015Z,52.35
2017-11-04T06:37:00.313Z,41.05
2017-11-04T06:39:27.875Z,37.85
2017-11-04T06:41:55.419Z,37.42
2017-11-04T06:44:22.982Z,43.97
2017-11-04T06:46:50.517Z,34.50
2017-11-04T06:49:18.045Z,43.08
2017-11-04T06:51:45.597Z,41.13
2017-11-04T06:54:13.893Z,50.25
2017-11-04T06:56:41.471Z,35.05
2017-11-04T06:59:09.015Z,37.55
2017-11-04T07:01:36.563Z,39.10
2017-11-04T07:04:04.882Z,33.20
2017-11-04T07:06:32.409Z,37.40
2017-11-04T07:09:00.741Z,39.05
2017-11-04T07:11:28.273Z,37.38
2017-11-04T07:13:55.806Z,38.78
2017-11-04T07:16:24.134Z,32.65
2017-11-04T07:18:51.682Z,39.17
2017-11-04T07:21:19.246Z,33.10
2017-11-04T07:23:46.773Z,34.33
2017-11-04T07:26:15.071Z,34.75
2017-11-04T07:28:42.621Z,38.03
2017-11-04T07:31:10.155Z,33.55
2017-11-04T07:33:38.504Z,35.40
2017-11-04T07:36:06.048Z,38.22
2017-11-04T07:38:33.605Z,35.30
2017-11-04T07:41:01.180Z,32.83
2017-11-04T07:43:28.708Z,40.60
2017-11-04T07:45:56.269Z,35.08
2017-11-04T07:48:23.814Z,54.60
2017-11-04T07:50:52.123Z,42.30
2017-11-04T07:53:19.682Z,35.25
2017-11-04T07:55:47.222Z,49.40
2017-11-04T07:58:15.581Z,47.22
2017-11-04T08:00:43.889Z,39.13
2017-11-04T08:03:11.429Z,48.58
2017-11-04T08:05:39.750Z,48.67
2017-11-04T08:08:07.309Z,80.20
2017-11-04T08:10:34.883Z,56.90
2017-11-04T08:13:02.432Z,55.75
2017-11-04T08:15:29.979Z,46.58
2017-11-04T08:17:57.554Z,42.95
2017-11-04T08:20:25.099Z,42.10
2017-11-04T08:22:53.420Z,38.42
2017-11-04T08:25:20.977Z,38.72
2017-11-04T08:27:48.534Z,44.65
2017-11-04T08:30:16.104Z,43.80
2017-11-04T08:32:43.657Z,41.08
2017-11-04T08:35:11.244Z,36.47
2017-11-04T08:37:38.795Z,35.85
2017-11-04T08:40:06.326Z,46.80
2017-11-04T08:42:33.900Z,87.78
2017-11-04T08:45:01.445Z,40.58
2017-11-04T08:47:29.009Z,50.12
2017-11-04T08:49:56.562Z,47.55
2017-11-04T08:52:24.109Z,49.42
2017-11-04T08:54:52.439Z,44.00
2017-11-04T08:57:20.025Z,57.25
2017-11-04T08:59:47.598Z,52.97
2017-11-04T09:02:15.923Z,42.03
2017-11-04T09:04:43.457Z,60.50
2017-11-04T09:07:11.791Z,55.00
2017-11-04T09:09:39.333Z,40.00
2017-11-04T09:12:06.916Z,42.42
2017-11-04T09:14:34.479Z,53.58
2017-11-04T09:17:02.022Z,51.40
2017-11-04T09:19:29.595Z,41.25
2017-11-04T09:21:57.120Z,50.45
2017-11-04T09:24:24.705Z,41.88
2017-11-04T09:26:52.259Z,43.05
2017-11-04T09:29:19.793Z,49.05
2017-11-04T09:31:48.125Z,42.70
2017-11-04T09:34:15.679Z,44.45
2017-11-04T09:36:43.335Z,44.78
2017-11-04T09:39:10.892Z,40.53
2017-11-04T09:41:38.448Z,32.23
2017-11-04T09:44:06.005Z,37.90
2017-11-04T09:46:33.565Z,66.60
2017-11-04T09:49:01.130Z,53.03
2017-11-04T09:51:28.692Z,36.33
2017-11-04T09:53:56.257Z,43.33
2017-11-04T09:56:23.828Z,37.87
2017-11-04T09:58:51.361Z,40.53
2017-11-04T10:01:18.926Z,30.50
2017-11-04T10:03:46.464Z,38.50
2017-11-04T10:06:14.768Z,33.60
2017-11-04T10:08:42.323Z,41.50
2017-11-04T10:11:10.640Z,45.47
2017-11-04T10:13:38.202Z,43.43
2017-11-04T10:16:05.758Z,35.33
2017-11-04T10:18:33.314Z,35.67
2017-11-04T10:21:00.871Z,40.33
2017-11-04T10:23:28.432Z,44.20
2017-11-04T10:25:56.016Z,48.70
2017-11-04T10:28:23.580Z,37.83
2017-11-04T10:30:51.146Z,31.50
2017-11-04T10:33:18.725Z,38.13
2017-11-04T10:35:46.288Z,34.33
2017-11-04T10:38:13.881Z,46.70
2017-11-04T10:40:42.172Z,31.20
2017-11-04T10:43:09.707Z,42.07
2017-11-04T10:45:38.098Z,45.37
2017-11-04T10:48:06.417Z,35.07
2017-11-04T10:50:34.456Z,29.67
2017-11-04T10:53:02.778Z,35.43
2017-11-04T10:55:30.335Z,32.03
2017-11-04T10:57:57.968Z,34.00
2017-11-04T11:00:26.447Z,32.90
2017-11-04T11:02:54.954Z,36.37
2017-11-04T11:05:22.524Z,42.03
2017-11-04T11:07:50.067Z,42.80
2017-11-04T11:10:17.629Z,38.63
2017-11-04T11:12:45.209Z,30.80
2017-11-04T11:15:13.373Z,31.67
2017-11-04T11:17:40.939Z,29.83
2017-11-04T11:20:08.490Z,33.50
2017-11-04T11:22:36.058Z,42.67
2017-11-04T11:25:03.648Z,30.47
2017-11-04T11:27:31.421Z,34.60
2017-11-04T11:29:58.965Z,33.70
2017-11-04T11:32:27.448Z,30.93
2017-11-04T11:34:55.009Z,39.53
2017-11-04T11:37:22.549Z,35.33
2017-11-04T11:39:50.141Z,33.23
2017-11-04T11:42:17.687Z,32.43
2017-11-04T11:44:45.230Z,35.57
2017-11-04T11:47:12.820Z,33.87
2017-11-04T11:49:40.378Z,29.37
2017-11-04T11:52:07.942Z,25.43
2017-11-04T11:54:35.500Z,34.07
2017-11-04T11:57:03.053Z,27.60
2017-11-04T11:59:30.619Z,38.40
2017-11-04T12:01:58.167Z,33.40
2017-11-04T12:04:25.730Z,23.20
2017-11-04T12:06:53.283Z,20.63
2017-11-04T12:09:20.822Z,35.70
2017-11-04T12:11:48.393Z,31.63
2017-11-04T12:14:16.714Z,33.33
2017-11-04T12:16:44.284Z,29.57
2017-11-04T12:19:11.823Z,29.60
2017-11-04T12:21:39.396Z,22.00
2017-11-04T12:24:06.944Z,31.53
2017-11-04T12:26:34.524Z,25.57
2017-11-04T12:29:02.057Z,27.83
2017-11-04T12:31:29.616Z,25.10
2017-11-04T12:33:57.192Z,29.47
2017-11-04T12:36:24.748Z,24.63
2017-11-04T12:38:52.327Z,21.70
2017-11-04T12:41:19.885Z,23.83
2017-11-04T12:43:47.441Z,24.50
2017-11-04T12:46:15.020Z,28.77
2017-11-04T12:48:42.567Z,28.10
2017-11-04T12:51:10.158Z,20.80
2017-11-04T12:53:37.698Z,19.07
2017-11-04T12:56:05.243Z,18.93
2017-11-04T12:58:32.812Z,18.53
2017-11-04T13:01:00.353Z,19.57
2017-11-04T13:03:27.920Z,18.07
2017-11-04T13:05:55.469Z,32.53
2017-11-04T13:08:23.788Z,18.00
2017-11-04T13:10:51.342Z,21.30
2017-11-04T13:13:18.870Z,14.00
2017-11-04T13:15:47.221Z,19.97
2017-11-04T13:18:14.781Z,23.73
2017-11-04T13:20:42.344Z,16.70
2017-11-04T13:23:09.922Z,25.20
2017-11-04T13:25:37.475Z,17.30
2017-11-04T13:28:05.051Z,24.60
2017-11-04T13:30:33.345Z,11.57
2017-11-04T13:33:01.655Z,20.33
2017-11-04T13:35:29.228Z,20.67
2017-11-04T13:37:56.783Z,16.70
2017-11-04T13:40:24.341Z,11.83
2017-11-04T13:42:51.878Z,15.43
2017-11-04T13:45:19.449Z,16.10
2017-11-04T13:47:47.061Z,13.47
2017-11-04T13:50:14.623Z,19.37
2017-11-04T13:52:42.184Z,13.77
2017-11-04T13:55:09.711Z,18.20
2017-11-04T13:57:37.241Z,16.30
2017-11-04T14:00:05.569Z,23.23
2017-11-04T14:02:33.124Z,15.10
2017-11-04T14:05:00.704Z,13.97
2017-11-04T14:07:28.256Z,20.07
2017-11-04T14:09:55.800Z,15.07
2017-11-04T14:12:23.360Z,20.93
2017-11-04T14:14:50.920Z,19.57
2017-11-04T14:17:18.486Z,18.93
2017-11-04T14:19:46.021Z,13.83
2017-11-04T14:22:13.576Z,13.90
2017-11-04T14:24:41.916Z,14.30
2017-11-04T14:27:09.459Z,12.53
2017-11-04T14:29:37.033Z,16.00
2017-11-04T14:32:04.580Z,18.13
2017-11-04T14:34:32.133Z,10.13
2017-11-04T14:36:59.704Z,21.87
2017-11-04T14:39:27.239Z,27.93
2017-11-04T14:41:54.831Z,12.50
2017-11-04T14:44:22.375Z,16.17
2017-11-04T14:46:49.905Z,18.33
2017-11-04T14:49:18.219Z,9.93
2017-11-04T14:51:45.749Z,16.30
2017-11-04T14:54:14.078Z,23.00
2017-11-04T14:56:41.627Z,13.33
2017-11-04T14:59:09.182Z,15.70
2017-11-04T15:01:36.764Z,13.90
2017-11-04T15:04:04.309Z,15.80
2017-11-04T15:06:31.912Z,14.33
2017-11-04T15:08:59.449Z,10.50
2017-11-04T15:11:27.035Z,15.60
2017-11-04T15:13:55.411Z,17.33
2017-11-04T15:16:22.944Z,23.10
2017-11-04T15:18:50.528Z,12.73
2017-11-04T15:21:18.052Z,11.77
2017-11-04T15:23:45.603Z,17.73
2017-11-04T15:26:13.179Z,13.67
2017-11-04T15:28:40.725Z,12.47
2017-11-04T15:31:08.296Z,21.30
2017-11-04T15:33:35.831Z,17.33
2017-11-04T15:36:04.151Z,10.50
2017-11-04T15:38:31.705Z,13.30
2017-11-04T15:40:59.265Z,15.20
2017-11-04T15:43:26.837Z,12.93
2017-11-04T15:45:54.384Z,14.50
2017-11-04T15:48:21.961Z,9.70
2017-11-04T15:50:49.506Z,12.53
2017-11-04T15:53:17.035Z,13.80
2017-11-04T15:55:45.352Z,18.60
2017-11-04T15:58:12.900Z,13.07
2017-11-04T16:00:40.462Z,9.93
2017-11-04T16:03:08.019Z,9.50
2017-11-04T16:05:35.571Z,9.63
2017-11-04T16:08:03.890Z,9.67
2017-11-04T16:10:31.430Z,12.07
2017-11-04T16:12:59.012Z,15.93
2017-11-04T16:15:26.556Z,8.60
2017-11-04T16:17:54.085Z,7.57
2017-11-04T16:20:22.423Z,8.80
2017-11-04T16:22:49.977Z,12.00
2017-11-04T16:25:17.558Z,8.00
2017-11-04T16:27:45.210Z,13.50
2017-11-04T16:30:12.756Z,9.33
2017-11-04T16:32:40.305Z,9.87
2017-11-04T16:35:07.849Z,6.60
2017-11-04T16:37:36.173Z,9.87
2017-11-04T16:40:03.706Z,13.40
2017-11-04T16:42:31.331Z,7.57
2017-11-04T16:44:58.904Z,8.53
2017-11-04T16:47:27.219Z,11.13
2017-11-04T16:49:54.795Z,9.27
2017-11-04T16:52:22.324Z,17.70
2017-11-04T16:54:50.647Z,14.63
2017-11-04T16:57:18.215Z,9.00
2017-11-04T16:59:45.763Z,11.47
2017-11-04T17:02:13.318Z,8.37
2017-11-04T17:04:40.913Z,9.60
2017-11-04T17:07:08.487Z,16.27
2017-11-04T17:09:36.038Z,9.70
2017-11-04T17:12:03.598Z,9.70
2017-11-04T17:14:31.166Z,12.77
2017-11-04T17:16:58.719Z,10.50
2017-11-04T17:19:26.295Z,10.07
2017-11-04T17:21:53.842Z,9.90
2017-11-04T17:24:21.377Z,15.53
2017-11-04T17:26:48.963Z,18.20
2017-11-04T17:29:16.500Z,13.83
2017-11-04T17:31:44.084Z,12.67
2017-11-04T17:34:11.640Z,12.60
2017-11-04T17:36:39.184Z,20.83
2017-11-04T17:39:06.752Z,11.03
2017-11-04T17:41:34.299Z,20.83
2017-11-04T17:44:01.867Z,11.70
2017-11-04T17:46:29.402Z,16.27
2017-11-04T17:48:57.709Z,13.20
2017-11-04T17:51:25.266Z,10.00
2017-11-04T17:53:52.816Z,8.90
2017-11-04T17:56:20.397Z,9.97
2017-11-04T17:58:47.947Z,10.23
2017-11-04T18:01:15.473Z,13.00
2017-11-04T18:03:43.799Z,16.70
2017-11-04T18:06:11.357Z,10.00
2017-11-04T18:08:38.924Z,9.77
2017-11-04T18:11:06.462Z,8.93
2017-11-04T18:13:34.028Z,12.07
2017-11-04T18:16:01.577Z,20.23
2017-11-04T18:18:29.887Z,10.43
2017-11-04T18:20:57.466Z,15.03
2017-11-04T18:23:25.028Z,13.90
2017-11-04T18:25:52.585Z,15.80
2017-11-04T18:28:20.153Z,12.80
2017-11-04T18:30:47.692Z,10.47
2017-11-04T18:33:15.268Z,7.90
2017-11-04T18:35:42.816Z,9.97
2017-11-04T18:38:10.348Z,14.67
2017-11-04T18:40:38.676Z,11.33
2017-11-04T18:43:06.215Z,11.93
2017-11-04T18:45:33.790Z,8.87
2017-11-04T18:48:01.328Z,16.40
2017-11-04T18:50:28.874Z,9.93
2017-11-04T18:52:57.195Z,11.80
2017-11-04T18:55:25.525Z,15.33
2017-11-04T18:57:53.871Z,10.27
2017-11-04T19:00:21.414Z,9.60
2017-11-04T19:02:48.943Z,16.93
2017-11-04T19:05:16.520Z,12.70
2017-11-04T19:07:44.069Z,9.70
2017-11-04T19:10:11.649Z,22.20
2017-11-04T19:12:39.195Z,9.27
2017-11-04T19:15:06.746Z,12.33
2017-11-04T19:17:35.080Z,18.90
2017-11-04T19:20:02.644Z,11.93
2017-11-04T19:22:30.215Z,9.20
2017-11-04T19:24:57.763Z,16.80
2017-11-04T19:27:25.311Z,15.03
2017-11-04T19:29:52.884Z,12.13
2017-11-04T19:32:20.418Z,17.67
2017-11-04T19:34:47.992Z,11.50
2017-11-04T19:37:15.525Z,13.33
2017-11-04T19:39:43.070Z,9.53
2017-11-04T19:42:11.409Z,15.80
2017-11-04T19:44:38.937Z,14.20
2017-11-04T19:47:06.505Z,14.27
2017-11-04T19:49:34.051Z,24.07
2017-11-04T19:52:01.600Z,11.53
2017-11-04T19:54:29.920Z,11.17
2017-11-04T19:56:57.477Z,20.33
2017-11-04T19:59:25.042Z,12.77
2017-11-04T20:01:52.591Z,9.00
2017-11-04T20:04:20.119Z,9.40
2017-11-04T20:06:48.460Z,12.03
2017-11-04T20:09:16.008Z,15.93
2017-11-04T20:11:43.585Z,8.43
2017-11-04T20:14:11.164Z,9.27
2017-11-04T20:16:38.709Z,11.63
2017-11-04T20:19:06.266Z,14.50
2017-11-04T20:21:33.819Z,10.47
2017-11-04T20:24:01.400Z,11.80
2017-11-04T20:26:28.950Z,17.03
2017-11-04T20:28:56.481Z,10.57
2017-11-04T20:31:24.033Z,11.13
2017-11-04T20:33:51.582Z,11.23
2017-11-04T20:36:19.921Z,12.03
2017-11-04T20:38:48.232Z,9.67
2017-11-04T20:41:16.531Z,9.43
2017-11-04T20:43:44.096Z,10.00
2017-11-04T20:46:11.639Z,9.93
2017-11-04T20:48:39.982Z,9.43
2017-11-04T20:51:07.525Z,9.20
2017-11-04T20:53:35.064Z,11.70
2017-11-04T20:56:02.626Z,11.13
2017-11-04T20:58:30.167Z,10.07
2017-11-04T21:00:58.504Z,13.25
2017-11-04T21:03:26.034Z,22.00
2017-11-04T21:05:53.579Z,12.00
2017-11-04T21:08:21.898Z,11.37
2017-11-04T21:10:49.438Z,11.77
2017-11-04T21:13:17.014Z,11.60
2017-11-04T21:15:44.565Z,9.07
2017-11-04T21:18:12.231Z,12.63
2017-11-04T21:20:39.896Z,11.07
2017-11-04T21:23:07.446Z,13.33
2017-11-04T21:25:35.019Z,11.83
2017-11-04T21:28:02.619Z,12.83
2017-11-04T21:30:30.170Z,10.20
2017-11-04T21:32:57.761Z,13.03
2017-11-04T21:35:26.065Z,11.60
2017-11-04T21:37:54.407Z,15.25
2017-11-04T21:40:22.171Z,12.17
2017-11-04T21:42:49.777Z,13.00
2017-11-04T21:45:17.371Z,11.17
2017-11-04T21:47:44.929Z,10.50
2017-11-04T21:50:12.498Z,11.03
2017-11-04T21:52:40.334Z,10.27
2017-11-04T21:55:07.948Z,10.95
2017-11-04T21:57:35.502Z,11.60
2017-11-04T22:00:03.035Z,11.40
2017-11-04T22:02:30.605Z,10.50
2017-11-04T22:04:58.135Z,11.23
2017-11-04T22:07:26.465Z,15.23
2017-11-04T22:09:54.029Z,15.17
2017-11-04T22:12:21.558Z,8.73
2017-11-04T22:14:49.127Z,11.25
2017-11-04T22:17:16.682Z,35.07
2017-11-04T22:19:44.246Z,13.23
2017-11-04T22:22:11.786Z,13.20
2017-11-04T22:24:40.077Z,14.17
2017-11-04T22:27:07.632Z,14.90
2017-11-04T22:29:35.184Z,12.80
2017-11-04T22:32:03.525Z,17.53
2017-11-04T22:34:31.080Z,19.93
2017-11-04T22:36:58.666Z,15.53
2017-11-04T22:39:26.216Z,23.63
2017-11-04T22:41:53.764Z,11.63
2017-11-04T22:44:21.320Z,12.70
2017-11-04T22:46:48.858Z,10.87
2017-11-04T22:49:16.430Z,10.80
2017-11-04T22:51:43.962Z,11.50
2017-11-04T22:54:11.548Z,20.63
2017-11-04T22:56:39.095Z,10.17
2017-11-04T22:59:06.637Z,9.73
2017-11-04T23:01:34.976Z,12.53
2017-11-04T23:04:02.538Z,11.53
2017-11-04T23:06:30.884Z,12.00
2017-11-04T23:08:58.417Z,12.43
2017-11-04T23:11:26.928Z,11.30
2017-11-04T23:13:54.481Z,10.77
2017-11-04T23:16:22.047Z,12.33
2017-11-04T23:18:49.587Z,14.47
2017-11-04T23:21:17.885Z,20.20
2017-11-04T23:23:45.455Z,17.40
2017-11-04T23:26:12.989Z,16.53
2017-11-04T23:28:41.336Z,19.90
2017-11-04T23:31:08.873Z,14.20
2017-11-04T23:33:36.415Z,12.40
2017-11-04T23:36:03.994Z,13.17
2017-11-04T23:38:31.554Z,17.03
2017-11-04T23:40:59.120Z,23.17
2017-11-04T23:43:26.677Z,16.80
2017-11-04T23:45:54.233Z,29.20
2017-11-04T23:48:21.795Z,24.27
2017-11-04T23:50:49.330Z,20.97
2017-11-04T23:53:17.668Z,18.37
2017-11-04T23:55:45.206Z,20.43
2017-11-04T23:58:15.920Z,21.30
